createdAt,value
2023-04-08T00:01:05.628Z,15.32
2023-04-08T00:03:33.428Z,14.65
2023-04-08T00:06:02.730Z,14.38
2023-04-08T00:08:30.815Z,14.27
2023-04-08T00:11:00.819Z,14.70
2023-04-08T00:13:27.930Z,14.95
2023-04-08T00:15:55.067Z,15.68
2023-04-08T00:18:22.359Z,15.30
2023-04-08T00:20:49.404Z,15.05
2023-04-08T00:23:16.520Z,15.90
2023-04-08T00:25:44.181Z,15.82
2023-04-08T00:28:11.435Z,15.35
2023-04-08T00:30:38.567Z,15.40
2023-04-08T00:33:05.600Z,14.75
2023-04-08T00:35:32.633Z,14.90
2023-04-08T00:37:59.654Z,15.60
2023-04-08T00:40:56.397Z,13.85
2023-04-08T00:43:24.055Z,14.30
2023-04-08T00:45:51.127Z,14.30
2023-04-08T00:48:18.268Z,14.40
2023-04-08T00:50:47.215Z,12.25
2023-04-08T00:53:19.430Z,12.63
2023-04-08T00:55:46.600Z,13.27
2023-04-08T00:58:14.841Z,12.90
2023-04-08T01:00:52.952Z,12.07
2023-04-08T01:03:58.297Z,11.40
2023-04-08T01:06:49.574Z,11.60
2023-04-08T01:09:23.608Z,11.13
2023-04-08T01:11:53.791Z,11.55
2023-04-08T01:14:26.614Z,10.73
2023-04-08T01:16:58.759Z,11.18
2023-04-08T01:19:34.443Z,12.13
2023-04-08T01:23:00.341Z,12.63
2023-04-08T01:25:34.278Z,11.65
2023-04-08T01:28:08.937Z,12.02
2023-04-08T01:30:40.267Z,13.30
2023-04-08T01:33:11.606Z,11.38
2023-04-08T01:35:39.343Z,11.18
2023-04-08T01:38:09.856Z,12.55
2023-04-08T01:40:39.751Z,12.25
2023-04-08T01:43:14.900Z,12.18
2023-04-08T01:45:48.766Z,12.25
2023-04-08T01:48:16.881Z,12.05
2023-04-08T01:50:45.627Z,11.25
2023-04-08T01:53:14.162Z,11.65
2023-04-08T01:55:43.305Z,11.35
2023-04-08T01:58:18.318Z,10.73
2023-04-08T02:00:46.563Z,12.60
2023-04-08T02:03:18.787Z,12.15
2023-04-08T02:05:46.793Z,10.75
2023-04-08T02:08:14.156Z,10.75
2023-04-08T02:10:41.303Z,10.85
2023-04-08T02:13:08.758Z,11.15
2023-04-08T02:15:42.957Z,11.45
2023-04-08T02:18:16.699Z,10.68
2023-04-08T02:20:53.742Z,12.00
2023-04-08T02:23:24.952Z,11.48
2023-04-08T02:25:56.610Z,11.95
2023-04-08T02:28:29.067Z,10.93
2023-04-08T02:31:00.769Z,10.10
2023-04-08T02:33:28.677Z,11.53
2023-04-08T02:35:57.395Z,11.27
2023-04-08T02:38:24.556Z,10.77
2023-04-08T02:40:52.037Z,10.73
2023-04-08T02:43:19.171Z,10.90
2023-04-08T02:45:46.557Z,10.02
2023-04-08T02:48:15.379Z,10.55
2023-04-08T02:50:42.359Z,10.35
2023-04-08T02:53:10.114Z,9.23
2023-04-08T02:55:38.063Z,10.18
2023-04-08T02:58:05.409Z,10.45
2023-04-08T03:00:32.801Z,9.73
2023-04-08T03:03:00.170Z,9.23
2023-04-08T03:05:27.444Z,9.18
2023-04-08T03:07:54.533Z,10.20
2023-04-08T03:10:21.827Z,9.32
2023-04-08T03:12:49.020Z,10.13
2023-04-08T03:15:16.449Z,12.20
2023-04-08T03:17:43.797Z,10.10
2023-04-08T03:20:11.421Z,9.00
2023-04-08T03:22:38.833Z,10.65
2023-04-08T03:25:06.615Z,9.63
2023-04-08T03:27:33.704Z,8.80
2023-04-08T03:30:01.121Z,9.48
2023-04-08T03:32:28.376Z,8.23
2023-04-08T03:34:55.353Z,9.88
2023-04-08T03:37:22.437Z,9.00
2023-04-08T03:39:49.477Z,8.93
2023-04-08T03:42:16.608Z,8.38
2023-04-08T03:44:46.966Z,9.43
2023-04-08T03:47:14.160Z,7.68
2023-04-08T03:49:41.243Z,7.97
2023-04-08T03:52:08.419Z,8.02
2023-04-08T03:54:35.543Z,7.93
2023-04-08T03:57:02.642Z,7.53
2023-04-08T03:59:30.181Z,8.07
2023-04-08T04:01:57.228Z,6.93
2023-04-08T04:04:24.860Z,7.38
2023-04-08T04:06:53.031Z,7.15
2023-04-08T04:09:20.300Z,6.97
2023-04-08T04:11:47.439Z,7.90
2023-04-08T04:14:14.700Z,7.82
2023-04-08T04:16:41.901Z,6.43
2023-04-08T04:19:10.858Z,6.82
2023-04-08T04:21:38.385Z,6.72
2023-04-08T04:24:05.830Z,6.03
2023-04-08T04:26:33.997Z,7.82
2023-04-08T04:29:01.342Z,7.80
2023-04-08T04:31:28.747Z,7.68
2023-04-08T04:33:55.956Z,7.80
2023-04-08T04:36:23.078Z,7.55
2023-04-08T04:38:51.571Z,7.10
2023-04-08T04:41:19.145Z,6.63
2023-04-08T04:43:46.269Z,8.40
2023-04-08T04:46:13.879Z,7.07
2023-04-08T04:48:41.107Z,8.00
2023-04-08T04:51:08.132Z,6.35
2023-04-08T04:53:35.461Z,7.20
2023-04-08T04:56:02.721Z,7.10
2023-04-08T04:58:30.910Z,7.63
2023-04-08T05:00:58.239Z,7.25
2023-04-08T05:03:25.395Z,8.25
2023-04-08T05:05:54.594Z,8.15
2023-04-08T05:08:22.161Z,8.00
2023-04-08T05:10:50.823Z,6.45
2023-04-08T05:13:18.811Z,6.45
2023-04-08T05:15:46.299Z,7.38
2023-04-08T05:18:15.982Z,7.50
2023-04-08T05:20:43.141Z,7.10
2023-04-08T05:23:10.332Z,8.40
2023-04-08T05:25:37.394Z,7.50
2023-04-08T05:28:04.899Z,7.78
2023-04-08T05:30:32.004Z,8.10
2023-04-08T05:33:00.609Z,7.68
2023-04-08T05:35:29.441Z,7.60
2023-04-08T05:37:56.518Z,8.18
2023-04-08T05:40:24.104Z,7.63
2023-04-08T05:42:51.120Z,8.45
2023-04-08T05:45:18.160Z,8.85
2023-04-08T05:47:45.204Z,6.80
2023-04-08T05:50:12.826Z,8.00
2023-04-08T05:52:47.105Z,7.80
2023-04-08T05:55:14.769Z,7.57
2023-04-08T05:57:42.347Z,7.93
2023-04-08T06:00:11.129Z,8.73
2023-04-08T06:02:38.989Z,8.43
2023-04-08T06:05:06.897Z,8.75
2023-04-08T06:07:34.635Z,9.43
2023-04-08T06:10:02.871Z,9.43
2023-04-08T06:12:30.289Z,8.70
2023-04-08T06:14:57.489Z,7.80
2023-04-08T06:17:24.755Z,8.48
2023-04-08T06:19:52.262Z,9.95
2023-04-08T06:22:19.422Z,9.40
2023-04-08T06:24:48.422Z,10.57
2023-04-08T06:27:16.052Z,10.55
2023-04-08T06:29:43.456Z,9.80
2023-04-08T06:32:10.917Z,11.40
2023-04-08T06:34:38.336Z,10.80
2023-04-08T06:37:08.301Z,11.73
2023-04-08T06:39:35.583Z,10.82
2023-04-08T06:42:02.772Z,11.70
2023-04-08T06:44:39.943Z,11.73
2023-04-08T06:47:07.107Z,13.57
2023-04-08T06:49:34.275Z,14.93
2023-04-08T06:52:01.850Z,14.43
2023-04-08T06:54:36.872Z,14.88
2023-04-08T06:57:17.804Z,14.82
2023-04-08T06:59:54.425Z,15.18
2023-04-08T07:02:23.076Z,17.25
2023-04-08T07:04:50.279Z,17.73
2023-04-08T07:07:17.332Z,16.83
2023-04-08T07:09:46.121Z,17.65
2023-04-08T07:12:13.571Z,17.45
2023-04-08T07:14:43.766Z,19.05
2023-04-08T07:17:10.915Z,18.58
2023-04-08T07:19:38.454Z,17.88
2023-04-08T07:22:05.509Z,18.10
2023-04-08T07:24:32.930Z,19.50
2023-04-08T07:27:00.325Z,18.73
2023-04-08T07:29:28.037Z,20.23
2023-04-08T07:31:55.066Z,18.20
2023-04-08T07:34:22.157Z,19.15
2023-04-08T07:36:49.423Z,18.58
2023-04-08T07:39:17.763Z,18.38
2023-04-08T07:41:44.820Z,16.90
2023-04-08T07:44:11.921Z,17.60
2023-04-08T07:46:39.423Z,17.52
2023-04-08T07:49:07.189Z,17.10
2023-04-08T07:51:34.926Z,17.58
2023-04-08T07:54:02.062Z,16.42
2023-04-08T07:56:29.246Z,14.60
2023-04-08T07:58:56.719Z,14.10
2023-04-08T08:01:24.503Z,11.15
2023-04-08T08:03:53.200Z,10.45
2023-04-08T08:06:20.905Z,9.70
2023-04-08T08:08:48.363Z,8.25
2023-04-08T08:11:15.690Z,8.25
2023-04-08T08:13:42.808Z,7.28
2023-04-08T08:16:11.890Z,7.22
2023-04-08T08:18:40.832Z,6.78
2023-04-08T08:21:08.934Z,7.97
2023-04-08T08:23:37.472Z,6.65
2023-04-08T08:26:07.757Z,7.50
2023-04-08T08:28:35.044Z,6.38
2023-04-08T08:31:02.483Z,6.43
2023-04-08T08:33:29.689Z,7.03
2023-04-08T08:35:58.099Z,6.90
2023-04-08T08:38:25.927Z,6.05
2023-04-08T08:40:58.245Z,6.40
2023-04-08T08:43:26.122Z,6.47
2023-04-08T08:45:55.804Z,6.70
2023-04-08T08:48:23.129Z,6.53
2023-04-08T08:50:50.465Z,7.68
2023-04-08T08:53:17.708Z,6.53
2023-04-08T08:56:13.606Z,6.50
2023-04-08T08:58:32.300Z,7.32
2023-04-08T09:00:59.832Z,7.30
2023-04-08T09:03:29.017Z,7.05
2023-04-08T09:06:01.821Z,7.85
2023-04-08T09:11:18.332Z,8.27
2023-04-08T09:13:46.679Z,8.50
2023-04-08T09:16:19.967Z,8.63
2023-04-08T09:18:49.418Z,8.63
2023-04-08T09:21:18.064Z,8.88
2023-04-08T09:23:51.375Z,8.52
2023-04-08T09:26:24.683Z,9.02
2023-04-08T09:29:24.935Z,9.23
2023-04-08T09:31:58.533Z,9.27
2023-04-08T09:36:56.009Z,9.32
2023-04-08T09:39:24.055Z,10.43
2023-04-08T09:41:53.112Z,10.80
2023-04-08T09:44:22.160Z,9.95
2023-04-08T09:47:20.814Z,9.65
2023-04-08T09:49:56.368Z,8.30
2023-04-08T09:52:33.378Z,8.88
2023-04-08T09:55:08.604Z,8.93
2023-04-08T09:57:35.667Z,7.72
2023-04-08T10:00:18.270Z,8.77
2023-04-08T10:05:27.676Z,9.38
2023-04-08T10:07:57.371Z,10.02
2023-04-08T10:10:26.136Z,10.00
2023-04-08T10:12:53.875Z,9.18
2023-04-08T10:15:36.868Z,9.88
2023-04-08T10:18:06.703Z,10.20
2023-04-08T10:20:37.062Z,10.82
2023-04-08T10:23:09.141Z,10.43
2023-04-08T10:25:45.381Z,10.30
2023-04-08T10:28:18.089Z,11.48
2023-04-08T10:30:57.441Z,11.57
2023-04-08T10:33:30.873Z,10.52
2023-04-08T10:36:10.251Z,10.50
2023-04-08T10:38:44.461Z,9.73
2023-04-08T10:41:21.516Z,9.93
2023-04-08T10:43:48.868Z,10.75
2023-04-08T10:46:19.773Z,9.30
2023-04-08T10:49:01.873Z,9.45
2023-04-08T10:51:34.069Z,9.30
2023-04-08T10:54:13.626Z,9.40
2023-04-08T10:56:48.699Z,9.00
2023-04-08T10:59:26.931Z,8.90
2023-04-08T11:01:55.474Z,9.73
2023-04-08T11:04:23.738Z,7.47
2023-04-08T11:06:54.790Z,9.70
2023-04-08T11:09:22.056Z,8.77
2023-04-08T11:11:49.102Z,9.95
2023-04-08T11:14:19.862Z,9.48
2023-04-08T11:16:48.060Z,9.88
2023-04-08T11:19:16.121Z,9.45
2023-04-08T11:21:43.432Z,9.70
2023-04-08T11:24:16.542Z,10.15
2023-04-08T11:26:44.006Z,10.63
2023-04-08T11:29:15.044Z,12.30
2023-04-08T11:31:44.276Z,11.25
2023-04-08T11:34:12.145Z,12.57
2023-04-08T11:36:41.993Z,13.63
2023-04-08T11:39:10.683Z,13.40
2023-04-08T11:41:41.024Z,14.25
2023-04-08T11:44:08.870Z,15.85
2023-04-08T11:46:36.936Z,15.85
2023-04-08T11:49:08.249Z,15.75
2023-04-08T11:51:54.983Z,16.45
2023-04-08T11:54:32.735Z,15.57
2023-04-08T11:57:00.280Z,17.30
2023-04-08T11:59:29.577Z,16.48
2023-04-08T12:01:57.422Z,12.20
2023-04-08T12:04:24.869Z,17.73
2023-04-08T12:06:52.563Z,17.17
2023-04-08T12:09:19.723Z,15.77
2023-04-08T12:11:47.011Z,15.95
2023-04-08T12:14:15.309Z,15.63
2023-04-08T12:16:43.045Z,16.50
2023-04-08T12:19:10.193Z,15.50
2023-04-08T12:21:38.382Z,16.58
2023-04-08T12:24:05.891Z,19.17
2023-04-08T12:26:33.736Z,17.50
2023-04-08T12:29:01.780Z,15.25
2023-04-08T12:31:29.206Z,16.77
2023-04-08T12:33:56.415Z,17.48
2023-04-08T12:36:23.620Z,17.10
2023-04-08T12:38:50.761Z,18.67
2023-04-08T12:41:18.090Z,18.17
2023-04-08T12:43:45.539Z,18.25
2023-04-08T12:46:14.690Z,19.08
2023-04-08T12:48:44.291Z,20.50
2023-04-08T12:51:14.274Z,18.52
2023-04-08T12:53:41.531Z,19.67
2023-04-08T12:56:08.702Z,14.27
2023-04-08T12:58:35.861Z,20.48
2023-04-08T13:01:03.191Z,20.02
2023-04-08T13:03:32.016Z,20.15
2023-04-08T13:05:59.317Z,21.02
2023-04-08T13:08:26.905Z,19.83
2023-04-08T13:10:55.212Z,19.50
2023-04-08T13:13:22.337Z,19.10
2023-04-08T13:15:49.592Z,19.63
2023-04-08T13:18:17.067Z,17.90
2023-04-08T13:20:44.128Z,18.13
2023-04-08T13:23:12.059Z,18.25
2023-04-08T13:25:39.115Z,15.07
2023-04-08T13:28:06.255Z,17.75
2023-04-08T13:30:33.392Z,16.35
2023-04-08T13:33:00.899Z,17.42
2023-04-08T13:35:28.020Z,15.77
2023-04-08T13:37:55.428Z,16.23
2023-04-08T13:40:22.500Z,14.45
2023-04-08T13:42:49.627Z,16.65
2023-04-08T13:45:17.235Z,13.93
2023-04-08T13:47:44.322Z,15.48
2023-04-08T13:50:11.671Z,16.80
2023-04-08T13:52:38.923Z,17.05
2023-04-08T13:55:06.872Z,15.90
2023-04-08T13:57:34.097Z,15.82
2023-04-08T14:00:01.412Z,16.02
2023-04-08T14:02:28.534Z,16.25
2023-04-08T14:04:56.646Z,14.88
2023-04-08T14:07:23.955Z,15.05
2023-04-08T14:09:51.389Z,14.25
2023-04-08T14:12:19.562Z,13.43
2023-04-08T14:14:46.687Z,14.48
2023-04-08T14:17:14.623Z,14.30
2023-04-08T14:19:42.099Z,13.80
2023-04-08T14:22:09.199Z,13.93
2023-04-08T14:24:36.624Z,12.98
2023-04-08T14:27:03.865Z,11.48
2023-04-08T14:29:31.371Z,14.38
2023-04-08T14:31:58.458Z,14.55
2023-04-08T14:34:25.878Z,12.00
2023-04-08T14:36:53.214Z,11.57
2023-04-08T14:39:20.460Z,13.30
2023-04-08T14:41:47.819Z,13.85
2023-04-08T14:44:14.956Z,13.85
2023-04-08T14:46:42.607Z,11.90
2023-04-08T14:49:09.814Z,13.93
2023-04-08T14:51:38.115Z,14.57
2023-04-08T14:54:05.866Z,14.07
2023-04-08T14:56:33.385Z,12.98
2023-04-08T14:59:00.628Z,13.95
2023-04-08T15:01:28.947Z,12.85
2023-04-08T15:03:56.730Z,12.75
2023-04-08T15:06:24.043Z,12.57
2023-04-08T15:08:52.874Z,12.13
2023-04-08T15:11:21.886Z,13.15
2023-04-08T15:13:49.189Z,12.57
2023-04-08T15:16:16.712Z,12.45
2023-04-08T15:18:44.656Z,12.23
2023-04-08T15:21:11.761Z,12.18
2023-04-08T15:23:41.957Z,11.98
2023-04-08T15:26:12.617Z,10.23
2023-04-08T15:28:40.655Z,12.40
2023-04-08T15:31:07.885Z,12.18
2023-04-08T15:33:35.575Z,11.50
2023-04-08T15:36:04.122Z,11.45
2023-04-08T15:38:33.710Z,12.48
2023-04-08T15:41:01.360Z,13.48
2023-04-08T15:43:31.309Z,13.43
2023-04-08T15:45:58.431Z,13.02
2023-04-08T15:48:26.238Z,14.02
2023-04-08T15:50:53.781Z,14.02
2023-04-08T15:53:21.410Z,13.85
2023-04-08T15:55:50.255Z,13.88
2023-04-08T15:58:17.636Z,15.30
2023-04-08T16:00:44.764Z,16.77
2023-04-08T16:03:12.962Z,17.75
2023-04-08T16:05:41.697Z,16.80
2023-04-08T16:08:09.474Z,16.90
2023-04-08T16:10:36.644Z,10.57
2023-04-08T16:13:03.741Z,15.65
2023-04-08T16:15:30.960Z,15.57
2023-04-08T16:17:58.260Z,17.85
2023-04-08T16:20:28.847Z,16.33
2023-04-08T16:22:56.250Z,17.08
2023-04-08T16:25:23.462Z,16.58
2023-04-08T16:27:50.533Z,16.58
2023-04-08T16:30:17.710Z,16.13
2023-04-08T16:32:45.122Z,16.10
2023-04-08T16:35:13.244Z,16.00
2023-04-08T16:37:40.331Z,15.88
2023-04-08T16:40:08.157Z,16.45
2023-04-08T16:42:35.552Z,15.00
2023-04-08T16:45:04.199Z,15.90
2023-04-08T16:47:31.775Z,14.32
2023-04-08T16:49:59.020Z,16.20
2023-04-08T16:52:26.120Z,15.40
2023-04-08T16:54:53.548Z,15.65
2023-04-08T16:57:20.673Z,16.30
2023-04-08T16:59:47.766Z,15.85
2023-04-08T17:02:14.905Z,15.82
2023-04-08T17:04:42.125Z,15.70
2023-04-08T17:07:09.152Z,16.67
2023-04-08T17:10:14.728Z,15.57
2023-04-08T17:12:43.462Z,17.08
2023-04-08T17:15:11.430Z,16.27
2023-04-08T17:17:38.757Z,15.27
2023-04-08T17:20:07.464Z,16.70
2023-04-08T17:22:34.582Z,16.02
2023-04-08T17:25:01.885Z,16.05
2023-04-08T17:27:29.070Z,17.60
2023-04-08T17:29:57.790Z,18.13
2023-04-08T17:32:28.683Z,18.50
2023-04-08T17:34:55.920Z,15.48
2023-04-08T17:37:22.962Z,16.02
2023-04-08T17:39:51.753Z,16.00
2023-04-08T17:42:22.808Z,17.17
2023-04-08T17:44:50.049Z,15.98
2023-04-08T17:47:17.130Z,17.13
2023-04-08T17:49:44.228Z,16.67
2023-04-08T17:52:11.798Z,16.95
2023-04-08T17:54:41.536Z,17.48
2023-04-08T17:57:08.563Z,16.92
2023-04-08T17:59:36.829Z,17.38
2023-04-08T18:02:06.554Z,17.55
2023-04-08T18:04:33.999Z,15.73
2023-04-08T18:07:03.902Z,17.35
2023-04-08T18:09:32.312Z,18.23
2023-04-08T18:11:59.336Z,19.42
2023-04-08T18:14:30.081Z,18.33
2023-04-08T18:16:57.473Z,19.17
2023-04-08T18:19:26.621Z,17.73
2023-04-08T18:21:55.463Z,18.13
2023-04-08T18:24:23.006Z,17.85
2023-04-08T18:27:01.492Z,18.88
2023-04-08T18:29:31.637Z,18.25
2023-04-08T18:32:01.930Z,16.00
2023-04-08T18:34:29.144Z,17.23
2023-04-08T18:36:56.301Z,16.58
2023-04-08T18:39:23.414Z,16.90
2023-04-08T18:41:50.818Z,16.85
2023-04-08T18:44:17.908Z,17.95
2023-04-08T18:46:48.018Z,17.10
2023-04-08T18:49:15.451Z,18.83
2023-04-08T18:51:51.660Z,17.70
2023-04-08T18:54:29.846Z,18.63
2023-04-08T18:56:57.005Z,18.70
2023-04-08T18:59:24.034Z,18.10
2023-04-08T19:01:51.292Z,18.27
2023-04-08T19:04:18.986Z,18.92
2023-04-08T19:06:48.031Z,19.30
2023-04-08T19:09:18.295Z,17.88
2023-04-08T19:11:45.491Z,19.02
2023-04-08T19:14:21.445Z,18.85
2023-04-08T19:16:48.789Z,18.40
2023-04-08T19:19:16.287Z,19.63
2023-04-08T19:21:43.733Z,19.00
2023-04-08T19:24:10.867Z,18.92
2023-04-08T19:26:38.105Z,19.77
2023-04-08T19:29:05.365Z,21.55
2023-04-08T19:31:35.085Z,22.60
2023-04-08T19:34:04.478Z,20.77
2023-04-08T19:36:32.023Z,22.88
2023-04-08T19:38:59.564Z,23.70
2023-04-08T19:41:26.663Z,23.10
2023-04-08T19:43:54.064Z,22.23
2023-04-08T19:46:21.569Z,22.95
2023-04-08T19:48:48.713Z,22.75
2023-04-08T19:51:23.063Z,22.27
2023-04-08T19:53:53.760Z,22.52
2023-04-08T19:56:21.664Z,22.95
2023-04-08T19:58:49.340Z,23.38
2023-04-08T20:01:16.840Z,24.55
2023-04-08T20:03:50.679Z,24.77
2023-04-08T20:06:19.146Z,22.48
2023-04-08T20:08:46.524Z,23.83
2023-04-08T20:11:15.843Z,24.23
2023-04-08T20:13:43.169Z,24.63
2023-04-08T20:16:10.348Z,25.60
2023-04-08T20:18:37.861Z,23.98
2023-04-08T20:21:10.167Z,23.50
2023-04-08T20:23:40.295Z,24.80
2023-04-08T20:26:07.287Z,24.80
2023-04-08T20:28:35.077Z,25.23
2023-04-08T20:31:02.917Z,25.33
2023-04-08T20:33:29.960Z,25.45
2023-04-08T20:35:57.634Z,26.40
2023-04-08T20:38:28.260Z,28.17
2023-04-08T20:40:55.656Z,29.90
2023-04-08T20:43:22.773Z,28.85
2023-04-08T20:45:50.012Z,26.48
2023-04-08T20:48:17.165Z,27.52
2023-04-08T20:50:48.554Z,28.48
2023-04-08T20:53:19.656Z,28.48
2023-04-08T20:55:46.751Z,28.33
2023-04-08T20:58:14.077Z,28.00
2023-04-08T21:00:41.287Z,29.02
2023-04-08T21:03:08.579Z,28.10
2023-04-08T21:05:38.883Z,28.85
2023-04-08T21:08:06.641Z,29.15
2023-04-08T21:10:33.807Z,29.17
2023-04-08T21:13:01.230Z,28.83
2023-04-08T21:15:28.460Z,28.60
2023-04-08T21:17:55.605Z,29.10
2023-04-08T21:20:22.752Z,29.55
2023-04-08T21:22:50.503Z,30.50
2023-04-08T21:25:18.564Z,28.95
2023-04-08T21:27:45.662Z,28.98
2023-04-08T21:30:16.944Z,30.05
2023-04-08T21:32:44.107Z,28.80
2023-04-08T21:35:11.313Z,29.98
2023-04-08T21:37:39.081Z,29.20
2023-04-08T21:40:07.175Z,30.33
2023-04-08T21:42:34.406Z,28.30
2023-04-08T21:45:01.607Z,30.25
2023-04-08T21:47:29.084Z,31.27
2023-04-08T21:49:56.188Z,31.13
2023-04-08T21:52:23.981Z,30.27
2023-04-08T21:54:51.738Z,31.52
2023-04-08T21:57:19.139Z,28.80
2023-04-08T21:59:46.662Z,30.48
2023-04-08T22:02:13.809Z,30.40
2023-04-08T22:04:41.110Z,30.52
2023-04-08T22:07:08.536Z,30.70
2023-04-08T22:09:35.674Z,30.17
2023-04-08T22:12:03.214Z,30.48
2023-04-08T22:14:30.459Z,31.13
2023-04-08T22:16:57.690Z,30.35
2023-04-08T22:19:24.733Z,30.20
2023-04-08T22:21:52.011Z,30.80
2023-04-08T22:24:20.308Z,30.85
2023-04-08T22:26:47.844Z,31.63
2023-04-08T22:29:14.872Z,31.00
2023-04-08T22:31:41.957Z,32.13
2023-04-08T22:34:08.958Z,31.63
2023-04-08T22:36:36.118Z,31.48
2023-04-08T22:39:03.896Z,29.73
2023-04-08T22:41:31.103Z,30.75
2023-04-08T22:43:58.145Z,29.95
2023-04-08T22:46:27.822Z,31.25
2023-04-08T22:48:54.980Z,29.08
2023-04-08T22:51:22.691Z,30.88
2023-04-08T22:53:49.952Z,29.67
2023-04-08T22:56:17.417Z,30.05
2023-04-08T22:58:44.423Z,30.10
2023-04-08T23:01:17.739Z,32.55
2023-04-08T23:03:45.211Z,32.30
2023-04-08T23:06:12.377Z,31.27
2023-04-08T23:08:39.783Z,32.13
2023-04-08T23:11:07.560Z,31.52
2023-04-08T23:13:35.370Z,31.92
2023-04-08T23:16:02.854Z,34.10
2023-04-08T23:18:29.968Z,33.33
2023-04-08T23:20:58.350Z,33.50
2023-04-08T23:23:26.011Z,33.20
2023-04-08T23:25:55.599Z,32.50
2023-04-08T23:28:23.453Z,33.92
2023-04-08T23:30:50.530Z,32.85
2023-04-08T23:33:17.697Z,35.08
2023-04-08T23:35:44.877Z,34.50
2023-04-08T23:38:12.194Z,33.85
2023-04-08T23:40:39.387Z,34.08
2023-04-08T23:43:06.501Z,33.80
2023-04-08T23:45:33.536Z,31.92
2023-04-08T23:48:00.847Z,34.05
2023-04-08T23:50:27.978Z,34.08
2023-04-08T23:52:55.365Z,33.10
2023-04-08T23:55:22.729Z,32.33
2023-04-08T23:57:53.686Z,32.53
